sensor_id;sensor_type;location;lat;lon;timestamp;pressure;altitude;pressure_sealevel;temperature;humidity
20015;BME280;61787;42.022;23.078;2024-03-22T00:00:18;96808.97;;;9.40;33.61
20015;BME280;61787;42.022;23.078;2024-03-22T00:01:19;96813.28;;;9.38;33.58
20015;BME280;61787;42.022;23.078;2024-03-22T00:02:20;96812.53;;;9.33;33.77
20015;BME280;61787;42.022;23.078;2024-03-22T00:03:21;96819.94;;;9.18;34.17
20015;BME280;61787;42.022;23.078;2024-03-22T00:04:22;96812.97;;;9.14;34.07
20015;BME280;61787;42.022;23.078;2024-03-22T00:05:23;96811.44;;;8.98;34.32
20015;BME280;61787;42.022;23.078;2024-03-22T00:06:23;96812.25;;;8.95;34.76
20015;BME280;61787;42.022;23.078;2024-03-22T00:07:24;96811.84;;;8.93;34.61
20015;BME280;61787;42.022;23.078;2024-03-22T00:08:25;96818.84;;;8.91;35.21
20015;BME280;61787;42.022;23.078;2024-03-22T00:09:25;96815.75;;;8.89;35.26
20015;BME280;61787;42.022;23.078;2024-03-22T00:10:26;96815.38;;;8.79;35.08
20015;BME280;61787;42.022;23.078;2024-03-22T00:11:26;96815.78;;;8.74;35.21
20015;BME280;61787;42.022;23.078;2024-03-22T00:12:27;96814.59;;;8.72;35.24
20015;BME280;61787;42.022;23.078;2024-03-22T00:13:27;96813.84;;;8.68;35.36
20015;BME280;61787;42.022;23.078;2024-03-22T00:14:28;96816.94;;;8.73;35.58
20015;BME280;61787;42.022;23.078;2024-03-22T00:15:29;96816.16;;;8.69;35.36
20015;BME280;61787;42.022;23.078;2024-03-22T00:16:30;96817.72;;;8.67;35.43
20015;BME280;61787;42.022;23.078;2024-03-22T00:17:30;96817.72;;;8.63;35.45
20015;BME280;61787;42.022;23.078;2024-03-22T00:18:31;96818.50;;;8.60;35.46
20015;BME280;61787;42.022;23.078;2024-03-22T00:19:31;96817.72;;;8.45;35.90
20015;BME280;61787;42.022;23.078;2024-03-22T00:20:32;96811.50;;;8.48;35.84
20015;BME280;61787;42.022;23.078;2024-03-22T00:21:33;96804.13;;;8.49;35.68
20015;BME280;61787;42.022;23.078;2024-03-22T00:22:33;96805.31;;;8.48;35.71
20015;BME280;61787;42.022;23.078;2024-03-22T00:23:34;96805.69;;;8.50;36.25
20015;BME280;61787;42.022;23.078;2024-03-22T00:24:34;96809.97;;;8.51;36.15
20015;BME280;61787;42.022;23.078;2024-03-22T00:25:35;96803.75;;;8.50;36.00
20015;BME280;61787;42.022;23.078;2024-03-22T00:26:36;96805.69;;;8.50;35.72
20015;BME280;61787;42.022;23.078;2024-03-22T00:27:36;96801.81;;;8.47;35.74
20015;BME280;61787;42.022;23.078;2024-03-22T00:28:37;96804.13;;;8.52;35.40
20015;BME280;61787;42.022;23.078;2024-03-22T00:29:37;96805.31;;;8.58;35.45
20015;BME280;61787;42.022;23.078;2024-03-22T00:30:38;96802.19;;;8.64;35.46
20015;BME280;61787;42.022;23.078;2024-03-22T00:31:39;96799.47;;;8.67;35.55
20015;BME280;61787;42.022;23.078;2024-03-22T00:32:39;96804.13;;;8.67;35.51
20015;BME280;61787;42.022;23.078;2024-03-22T00:33:40;96800.25;;;8.60;35.89
20015;BME280;61787;42.022;23.078;2024-03-22T00:34:40;96801.41;;;8.59;35.71
20015;BME280;61787;42.022;23.078;2024-03-22T00:35:41;96795.22;;;8.55;36.20
20015;BME280;61787;42.022;23.078;2024-03-22T00:36:42;96801.41;;;8.56;36.02
20015;BME280;61787;42.022;23.078;2024-03-22T00:37:42;96797.53;;;8.57;36.26
20015;BME280;61787;42.022;23.078;2024-03-22T00:38:43;96802.59;;;8.48;36.39
20015;BME280;61787;42.022;23.078;2024-03-22T00:39:44;96799.50;;;8.42;36.52
20015;BME280;61787;42.022;23.078;2024-03-22T00:40:44;96802.56;;;8.37;36.80
20015;BME280;61787;42.022;23.078;2024-03-22T00:41:45;96801.38;;;8.34;36.86
20015;BME280;61787;42.022;23.078;2024-03-22T00:42:45;96801.81;;;8.40;36.84
20015;BME280;61787;42.022;23.078;2024-03-22T00:43:46;96804.13;;;8.49;37.01
20015;BME280;61787;42.022;23.078;2024-03-22T00:44:47;96804.53;;;8.58;36.90
20015;BME280;61787;42.022;23.078;2024-03-22T00:45:48;96809.16;;;8.65;36.82
20015;BME280;61787;42.022;23.078;2024-03-22T00:46:48;96802.97;;;8.71;36.96
20015;BME280;61787;42.022;23.078;2024-03-22T00:47:49;96807.63;;;8.78;36.70
20015;BME280;61787;42.022;23.078;2024-03-22T00:48:49;96810.34;;;8.78;36.50
20015;BME280;61787;42.022;23.078;2024-03-22T00:49:50;96812.28;;;8.81;36.60
20015;BME280;61787;42.022;23.078;2024-03-22T00:50:51;96816.53;;;8.86;36.25
20015;BME280;61787;42.022;23.078;2024-03-22T00:51:51;96809.94;;;8.83;36.44
20015;BME280;61787;42.022;23.078;2024-03-22T00:52:52;96805.28;;;8.73;36.87
20015;BME280;61787;42.022;23.078;2024-03-22T00:53:55;96813.06;;;8.56;37.04
20015;BME280;61787;42.022;23.078;2024-03-22T00:54:55;96816.94;;;8.48;37.02
20015;BME280;61787;42.022;23.078;2024-03-22T00:55:56;96811.50;;;8.41;37.10
20015;BME280;61787;42.022;23.078;2024-03-22T00:56:59;96803.72;;;8.36;37.04
20015;BME280;61787;42.022;23.078;2024-03-22T00:57:59;96815.75;;;8.35;37.51
20015;BME280;61787;42.022;23.078;2024-03-22T00:59:00;96805.66;;;8.39;37.21
20015;BME280;61787;42.022;23.078;2024-03-22T01:00:01;96808.03;;;8.44;37.16
20015;BME280;61787;42.022;23.078;2024-03-22T01:01:01;96811.91;;;8.50;37.28
20015;BME280;61787;42.022;23.078;2024-03-22T01:02:03;96807.25;;;8.51;37.18
20015;BME280;61787;42.022;23.078;2024-03-22T01:03:04;96815.41;;;8.51;37.18
20015;BME280;61787;42.022;23.078;2024-03-22T01:04:04;96817.31;;;8.57;37.03
20015;BME280;61787;42.022;23.078;2024-03-22T01:05:05;96813.84;;;8.60;36.63
20015;BME280;61787;42.022;23.078;2024-03-22T01:06:06;96815.41;;;8.65;37.02
20015;BME280;61787;42.022;23.078;2024-03-22T01:07:07;96818.88;;;8.66;37.37
20015;BME280;61787;42.022;23.078;2024-03-22T01:08:08;96813.84;;;8.68;37.20
20015;BME280;61787;42.022;23.078;2024-03-22T01:09:09;96814.59;;;8.68;37.69
20015;BME280;61787;42.022;23.078;2024-03-22T01:10:10;96803.34;;;8.70;37.72
20015;BME280;61787;42.022;23.078;2024-03-22T01:11:11;96806.06;;;8.73;37.11
20015;BME280;61787;42.022;23.078;2024-03-22T01:12:12;96812.28;;;8.77;37.26
20015;BME280;61787;42.022;23.078;2024-03-22T01:13:12;96811.50;;;8.77;37.23
20015;BME280;61787;42.022;23.078;2024-03-22T01:14:13;96809.53;;;8.74;37.31
20015;BME280;61787;42.022;23.078;2024-03-22T01:15:14;96818.13;;;8.62;37.32
20015;BME280;61787;42.022;23.078;2024-03-22T01:16:14;96820.03;;;8.57;36.97
20015;BME280;61787;42.022;23.078;2024-03-22T01:17:15;96819.66;;;8.55;37.25
20015;BME280;61787;42.022;23.078;2024-03-22T01:18:15;96805.69;;;8.53;36.89
20015;BME280;61787;42.022;23.078;2024-03-22T01:19:16;96811.13;;;8.53;37.32
20015;BME280;61787;42.022;23.078;2024-03-22T01:20:16;96810.75;;;8.51;37.56
20015;BME280;61787;42.022;23.078;2024-03-22T01:21:17;96814.63;;;8.50;37.69
20015;BME280;61787;42.022;23.078;2024-03-22T01:22:18;96812.69;;;8.51;37.87
20015;BME280;61787;42.022;23.078;2024-03-22T01:23:18;96815.00;;;8.52;37.84
20015;BME280;61787;42.022;23.078;2024-03-22T01:24:19;96815.78;;;8.56;37.75
20015;BME280;61787;42.022;23.078;2024-03-22T01:25:20;96808.78;;;8.41;38.49
20015;BME280;61787;42.022;23.078;2024-03-22T01:26:20;96818.09;;;8.29;38.44
20015;BME280;61787;42.022;23.078;2024-03-22T01:27:21;96818.88;;;8.37;38.33
20015;BME280;61787;42.022;23.078;2024-03-22T01:28:22;96809.19;;;8.43;38.36
20015;BME280;61787;42.022;23.078;2024-03-22T01:29:22;96813.84;;;8.50;38.16
20015;BME280;61787;42.022;23.078;2024-03-22T01:30:23;96815.41;;;8.54;37.83
20015;BME280;61787;42.022;23.078;2024-03-22T01:31:24;96813.06;;;8.60;38.11
20015;BME280;61787;42.022;23.078;2024-03-22T01:32:24;96822.00;;;8.64;38.02
20015;BME280;61787;42.022;23.078;2024-03-22T01:33:25;96815.00;;;8.67;37.97
20015;BME280;61787;42.022;23.078;2024-03-22T01:34:26;96820.84;;;8.69;37.79
20015;BME280;61787;42.022;23.078;2024-03-22T01:35:26;96824.31;;;8.73;37.73
20015;BME280;61787;42.022;23.078;2024-03-22T01:36:27;96826.25;;;8.72;37.62
20015;BME280;61787;42.022;23.078;2024-03-22T01:37:27;96821.59;;;8.73;37.52
20015;BME280;61787;42.022;23.078;2024-03-22T01:38:28;96820.03;;;8.72;37.64
20015;BME280;61787;42.022;23.078;2024-03-22T01:39:29;96808.78;;;8.73;37.37
20015;BME280;61787;42.022;23.078;2024-03-22T01:40:29;96822.38;;;8.73;37.51
20015;BME280;61787;42.022;23.078;2024-03-22T01:41:30;96818.13;;;8.72;37.49
20015;BME280;61787;42.022;23.078;2024-03-22T01:42:31;96815.78;;;8.71;37.28
20015;BME280;61787;42.022;23.078;2024-03-22T01:43:32;96820.81;;;8.72;37.30
20015;BME280;61787;42.022;23.078;2024-03-22T01:44:32;96820.41;;;8.74;37.45
20015;BME280;61787;42.022;23.078;2024-03-22T01:45:33;96819.25;;;8.75;37.54
20015;BME280;61787;42.022;23.078;2024-03-22T01:46:34;96823.94;;;8.78;37.47
20015;BME280;61787;42.022;23.078;2024-03-22T01:47:35;96821.22;;;8.78;37.17
20015;BME280;61787;42.022;23.078;2024-03-22T01:48:36;96812.28;;;8.77;37.06
20015;BME280;61787;42.022;23.078;2024-03-22T01:49:37;96820.41;;;8.67;37.15
20015;BME280;61787;42.022;23.078;2024-03-22T01:50:38;96819.28;;;8.53;37.13
20015;BME280;61787;42.022;23.078;2024-03-22T01:51:42;96820.03;;;8.50;37.16
20015;BME280;61787;42.022;23.078;2024-03-22T01:52:43;96816.56;;;8.53;37.06
20015;BME280;61787;42.022;23.078;2024-03-22T01:53:44;96816.56;;;8.53;37.01
20015;BME280;61787;42.022;23.078;2024-03-22T01:54:45;96818.50;;;8.53;36.82
20015;BME280;61787;42.022;23.078;2024-03-22T01:55:45;96821.22;;;8.53;36.89
20015;BME280;61787;42.022;23.078;2024-03-22T01:56:46;96826.28;;;8.54;36.99
20015;BME280;61787;42.022;23.078;2024-03-22T01:57:49;96827.81;;;8.55;36.91
20015;BME280;61787;42.022;23.078;2024-03-22T01:58:52;96827.44;;;8.57;36.84
20015;BME280;61787;42.022;23.078;2024-03-22T01:59:53;96831.31;;;8.52;36.92
20015;BME280;61787;42.022;23.078;2024-03-22T02:00:56;96833.63;;;8.47;37.30
20015;BME280;61787;42.022;23.078;2024-03-22T02:01:56;96823.94;;;8.42;37.36
20015;BME280;61787;42.022;23.078;2024-03-22T02:02:57;96828.56;;;8.41;37.60
20015;BME280;61787;42.022;23.078;2024-03-22T02:03:58;96835.59;;;8.43;37.88
20015;BME280;61787;42.022;23.078;2024-03-22T02:04:58;96834.38;;;8.29;38.49
20015;BME280;61787;42.022;23.078;2024-03-22T02:05:59;96836.69;;;8.23;38.46
20015;BME280;61787;42.022;23.078;2024-03-22T02:06:59;96837.09;;;8.26;38.69
20015;BME280;61787;42.022;23.078;2024-03-22T02:08:00;96834.78;;;8.24;38.22
20015;BME280;61787;42.022;23.078;2024-03-22T02:09:01;96838.63;;;8.16;38.33
20015;BME280;61787;42.022;23.078;2024-03-22T02:10:01;96841.72;;;8.11;38.64
20015;BME280;61787;42.022;23.078;2024-03-22T02:11:02;96842.50;;;8.08;38.81
20015;BME280;61787;42.022;23.078;2024-03-22T02:12:03;96842.06;;;7.91;38.53
20015;BME280;61787;42.022;23.078;2024-03-22T02:13:04;96841.63;;;7.75;38.71
20015;BME280;61787;42.022;23.078;2024-03-22T02:14:04;96838.50;;;7.58;38.86
20015;BME280;61787;42.022;23.078;2024-03-22T02:15:06;96834.59;;;7.52;38.83
20015;BME280;61787;42.022;23.078;2024-03-22T02:16:09;96835.31;;;7.42;39.15
20015;BME280;61787;42.022;23.078;2024-03-22T02:17:10;96836.06;;;7.35;39.13
20015;BME280;61787;42.022;23.078;2024-03-22T02:18:11;96833.69;;;7.26;38.50
20015;BME280;61787;42.022;23.078;2024-03-22T02:19:11;96835.91;;;7.03;38.83
20015;BME280;61787;42.022;23.078;2024-03-22T02:20:12;96834.34;;;6.98;38.87
20015;BME280;61787;42.022;23.078;2024-03-22T02:21:13;96835.78;;;6.81;39.46
20015;BME280;61787;42.022;23.078;2024-03-22T02:22:13;96836.44;;;6.67;39.48
20015;BME280;61787;42.022;23.078;2024-03-22T02:23:14;96835.59;;;6.56;39.57
20015;BME280;61787;42.022;23.078;2024-03-22T02:24:14;96846.78;;;6.51;39.82
20015;BME280;61787;42.022;23.078;2024-03-22T02:25:15;96839.81;;;6.50;39.87
20015;BME280;61787;42.022;23.078;2024-03-22T02:26:16;96837.44;;;6.41;40.20
20015;BME280;61787;42.022;23.078;2024-03-22T02:27:16;96838.53;;;6.37;40.09
20015;BME280;61787;42.022;23.078;2024-03-22T02:28:17;96844.31;;;6.35;40.46
20015;BME280;61787;42.022;23.078;2024-03-22T02:29:18;96837.78;;;6.40;40.41
20015;BME280;61787;42.022;23.078;2024-03-22T02:30:18;96845.53;;;6.38;40.66
20015;BME280;61787;42.022;23.078;2024-03-22T02:31:19;96840.06;;;6.34;40.89
20015;BME280;61787;42.022;23.078;2024-03-22T02:32:20;96846.09;;;6.17;41.01
20015;BME280;61787;42.022;23.078;2024-03-22T02:33:21;96842.59;;;6.13;41.10
20015;BME280;61787;42.022;23.078;2024-03-22T02:34:22;96837.56;;;6.15;41.09
20015;BME280;61787;42.022;23.078;2024-03-22T02:35:22;96849.22;;;6.19;40.90
20015;BME280;61787;42.022;23.078;2024-03-22T02:36:23;96851.53;;;6.20;40.93
20015;BME280;61787;42.022;23.078;2024-03-22T02:37:23;96845.38;;;6.20;40.80
20015;BME280;61787;42.022;23.078;2024-03-22T02:38:24;96854.63;;;6.19;40.99
20015;BME280;61787;42.022;23.078;2024-03-22T02:39:24;96848.09;;;6.23;40.79
20015;BME280;61787;42.022;23.078;2024-03-22T02:40:25;96851.97;;;6.26;40.70
20015;BME280;61787;42.022;23.078;2024-03-22T02:41:26;96849.31;;;6.29;40.75
20015;BME280;61787;42.022;23.078;2024-03-22T02:42:26;96855.16;;;6.35;41.02
20015;BME280;61787;42.022;23.078;2024-03-22T02:43:27;96856.38;;;6.41;41.24
20015;BME280;61787;42.022;23.078;2024-03-22T02:44:28;96849.75;;;6.39;41.34
20015;BME280;61787;42.022;23.078;2024-03-22T02:45:29;96850.13;;;6.34;41.58
20015;BME280;61787;42.022;23.078;2024-03-22T02:46:31;96856.34;;;6.38;41.58
20015;BME280;61787;42.022;23.078;2024-03-22T02:47:31;96864.13;;;6.43;41.39
20015;BME280;61787;42.022;23.078;2024-03-22T02:48:32;96864.56;;;6.48;41.28
20015;BME280;61787;42.022;23.078;2024-03-22T02:49:32;96858.00;;;6.53;41.24
20015;BME280;61787;42.022;23.078;2024-03-22T02:50:33;96863.47;;;6.60;41.18
20015;BME280;61787;42.022;23.078;2024-03-22T02:51:34;96864.34;;;6.68;40.97
20015;BME280;61787;42.022;23.078;2024-03-22T02:52:35;96855.06;;;6.73;40.89
20015;BME280;61787;42.022;23.078;2024-03-22T02:53:35;96854.31;;;6.76;40.84
20015;BME280;61787;42.022;23.078;2024-03-22T02:54:36;96859.72;;;6.72;40.64
20015;BME280;61787;42.022;23.078;2024-03-22T02:55:38;96865.06;;;6.65;40.79
20015;BME280;61787;42.022;23.078;2024-03-22T02:56:39;96863.47;;;6.60;41.34
20015;BME280;61787;42.022;23.078;2024-03-22T02:57:39;96863.38;;;6.49;42.60
20015;BME280;61787;42.022;23.078;2024-03-22T02:58:40;96871.50;;;6.46;43.05
20015;BME280;61787;42.022;23.078;2024-03-22T02:59:40;96867.16;;;6.34;43.65
20015;BME280;61787;42.022;23.078;2024-03-22T03:00:41;96872.53;;;6.30;43.55
20015;BME280;61787;42.022;23.078;2024-03-22T03:01:42;96877.97;;;6.34;43.48
20015;BME280;61787;42.022;23.078;2024-03-22T03:02:42;96872.53;;;6.30;43.62
20015;BME280;61787;42.022;23.078;2024-03-22T03:03:43;96874.81;;;6.25;43.96
20015;BME280;61787;42.022;23.078;2024-03-22T03:04:44;96874.06;;;6.31;43.86
20015;BME280;61787;42.022;23.078;2024-03-22T03:05:44;96875.69;;;6.40;43.52
20015;BME280;61787;42.022;23.078;2024-03-22T03:06:45;96867.25;;;6.45;43.26
20015;BME280;61787;42.022;23.078;2024-03-22T03:07:48;96880.84;;;6.52;43.08
20015;BME280;61787;42.022;23.078;2024-03-22T03:08:49;96879.72;;;6.60;43.05
20015;BME280;61787;42.022;23.078;2024-03-22T03:09:49;96873.97;;;6.65;42.96
20015;BME280;61787;42.022;23.078;2024-03-22T03:10:50;96871.25;;;6.65;42.94
20015;BME280;61787;42.022;23.078;2024-03-22T03:11:51;96880.56;;;6.64;42.69
20015;BME280;61787;42.022;23.078;2024-03-22T03:12:51;96873.53;;;6.60;42.14
20015;BME280;61787;42.022;23.078;2024-03-22T03:13:52;96880.53;;;6.61;42.04
20015;BME280;61787;42.022;23.078;2024-03-22T03:14:52;96873.16;;;6.61;41.63
20015;BME280;61787;42.022;23.078;2024-03-22T03:15:53;96875.13;;;6.61;41.56
20015;BME280;61787;42.022;23.078;2024-03-22T03:16:53;96879.75;;;6.64;41.72
20015;BME280;61787;42.022;23.078;2024-03-22T03:17:54;96870.88;;;6.67;41.98
20015;BME280;61787;42.022;23.078;2024-03-22T03:18:55;96876.72;;;6.69;41.86
20015;BME280;61787;42.022;23.078;2024-03-22T03:19:55;96879.81;;;6.71;41.92
20015;BME280;61787;42.022;23.078;2024-03-22T03:20:56;96886.78;;;6.68;42.00
20015;BME280;61787;42.022;23.078;2024-03-22T03:21:56;96881.34;;;6.68;41.47
20015;BME280;61787;42.022;23.078;2024-03-22T03:22:57;96892.16;;;6.65;41.35
20015;BME280;61787;42.022;23.078;2024-03-22T03:24:00;96890.53;;;6.57;41.58
20015;BME280;61787;42.022;23.078;2024-03-22T03:25:00;96886.25;;;6.52;41.74
20015;BME280;61787;42.022;23.078;2024-03-22T03:26:01;96890.09;;;6.51;41.80
20015;BME280;61787;42.022;23.078;2024-03-22T03:27:02;96887.28;;;6.37;42.25
20015;BME280;61787;42.022;23.078;2024-03-22T03:28:03;96886.13;;;6.38;43.16
20015;BME280;61787;42.022;23.078;2024-03-22T03:29:04;96892.63;;;6.29;43.64
20015;BME280;61787;42.022;23.078;2024-03-22T03:30:05;96894.50;;;6.22;44.25
20015;BME280;61787;42.022;23.078;2024-03-22T03:31:06;96898.22;;;6.10;44.09
20015;BME280;61787;42.022;23.078;2024-03-22T03:32:06;96896.66;;;6.05;43.57
20015;BME280;61787;42.022;23.078;2024-03-22T03:33:07;96901.69;;;6.07;43.48
20015;BME280;61787;42.022;23.078;2024-03-22T03:34:07;96894.75;;;6.09;43.60
20015;BME280;61787;42.022;23.078;2024-03-22T03:35:08;96902.56;;;6.18;43.71
20015;BME280;61787;42.022;23.078;2024-03-22T03:36:09;96900.31;;;6.24;43.40
20015;BME280;61787;42.022;23.078;2024-03-22T03:37:09;96902.59;;;6.22;43.03
20015;BME280;61787;42.022;23.078;2024-03-22T03:38:10;96902.66;;;6.25;42.28
20015;BME280;61787;42.022;23.078;2024-03-22T03:39:11;96897.97;;;6.22;42.06
20015;BME280;61787;42.022;23.078;2024-03-22T03:40:11;96897.56;;;6.20;42.15
20015;BME280;61787;42.022;23.078;2024-03-22T03:41:12;96898.34;;;6.21;42.13
20015;BME280;61787;42.022;23.078;2024-03-22T03:42:13;96892.16;;;6.20;41.98
20015;BME280;61787;42.022;23.078;2024-03-22T03:43:13;96900.28;;;6.20;42.25
20015;BME280;61787;42.022;23.078;2024-03-22T03:44:14;96903.72;;;6.17;42.20
20015;BME280;61787;42.022;23.078;2024-03-22T03:45:15;96911.78;;;6.14;42.37
20015;BME280;61787;42.022;23.078;2024-03-22T03:46:15;96902.50;;;6.11;42.42
20015;BME280;61787;42.022;23.078;2024-03-22T03:47:16;96908.69;;;6.11;42.43
20015;BME280;61787;42.022;23.078;2024-03-22T03:48:16;96908.31;;;6.13;42.31
20015;BME280;61787;42.022;23.078;2024-03-22T03:49:17;96907.97;;;6.18;42.17
20015;BME280;61787;42.022;23.078;2024-03-22T03:50:18;96907.22;;;6.18;42.21
20015;BME280;61787;42.022;23.078;2024-03-22T03:51:18;96913.41;;;6.18;42.44
20015;BME280;61787;42.022;23.078;2024-03-22T03:52:19;96904.09;;;6.16;42.60
20015;BME280;61787;42.022;23.078;2024-03-22T03:53:19;96914.53;;;6.17;42.47
20015;BME280;61787;42.022;23.078;2024-03-22T03:54:21;96913.28;;;6.07;42.51
20015;BME280;61787;42.022;23.078;2024-03-22T03:55:22;96909.41;;;6.05;42.67
20015;BME280;61787;42.022;23.078;2024-03-22T03:56:23;96913.63;;;6.02;42.73
20015;BME280;61787;42.022;23.078;2024-03-22T03:57:23;96907.84;;;6.04;42.64
20015;BME280;61787;42.022;23.078;2024-03-22T03:58:24;96913.31;;;6.11;42.65
20015;BME280;61787;42.022;23.078;2024-03-22T03:59:25;96913.41;;;6.18;42.60
20015;BME280;61787;42.022;23.078;2024-03-22T04:00:25;96911.50;;;6.22;42.69
20015;BME280;61787;42.022;23.078;2024-03-22T04:01:26;96907.31;;;6.28;42.54
20015;BME280;61787;42.022;23.078;2024-03-22T04:02:26;96908.13;;;6.33;42.32
20015;BME280;61787;42.022;23.078;2024-03-22T04:03:27;96906.59;;;6.35;42.56
20015;BME280;61787;42.022;23.078;2024-03-22T04:04:28;96908.16;;;6.36;42.46
20015;BME280;61787;42.022;23.078;2024-03-22T04:05:28;96899.69;;;6.41;42.44
20015;BME280;61787;42.022;23.078;2024-03-22T04:06:29;96904.41;;;6.48;42.40
20015;BME280;61787;42.022;23.078;2024-03-22T04:07:30;96902.50;;;6.52;42.36
20015;BME280;61787;42.022;23.078;2024-03-22T04:08:31;96913.00;;;6.57;42.29
20015;BME280;61787;42.022;23.078;2024-03-22T04:09:33;96907.22;;;6.59;42.34
20015;BME280;61787;42.022;23.078;2024-03-22T04:10:34;96915.38;;;6.62;42.35
20015;BME280;61787;42.022;23.078;2024-03-22T04:11:35;96914.59;;;6.65;42.35
20015;BME280;61787;42.022;23.078;2024-03-22T04:12:35;96913.13;;;6.72;42.39
20015;BME280;61787;42.022;23.078;2024-03-22T04:13:36;96915.50;;;6.77;42.27
20015;BME280;61787;42.022;23.078;2024-03-22T04:14:37;96914.72;;;6.80;41.95
20015;BME280;61787;42.022;23.078;2024-03-22T04:15:37;96917.81;;;6.82;41.72
20015;BME280;61787;42.022;23.078;2024-03-22T04:16:38;96919.03;;;6.84;41.70
20015;BME280;61787;42.022;23.078;2024-03-22T04:17:39;96915.16;;;6.89;41.71
20015;BME280;61787;42.022;23.078;2024-03-22T04:18:39;96925.63;;;6.91;41.98
20015;BME280;61787;42.022;23.078;2024-03-22T04:19:40;96923.72;;;6.91;42.14
20015;BME280;61787;42.022;23.078;2024-03-22T04:20:40;96931.09;;;6.94;42.40
20015;BME280;61787;42.022;23.078;2024-03-22T04:21:41;96929.50;;;6.86;42.54
20015;BME280;61787;42.022;23.078;2024-03-22T04:22:41;96925.22;;;6.85;42.42
20015;BME280;61787;42.022;23.078;2024-03-22T04:23:42;96927.56;;;6.86;42.44
20015;BME280;61787;42.022;23.078;2024-03-22T04:24:43;96924.88;;;6.90;42.35
20015;BME280;61787;42.022;23.078;2024-03-22T04:25:58;96930.69;;;6.92;42.35
20015;BME280;61787;42.022;23.078;2024-03-22T04:26:59;96934.16;;;6.93;42.23
20015;BME280;61787;42.022;23.078;2024-03-22T04:28:00;96932.63;;;6.92;42.32
20015;BME280;61787;42.022;23.078;2024-03-22T04:29:01;96934.16;;;6.93;42.30
20015;BME280;61787;42.022;23.078;2024-03-22T04:30:02;96933.00;;;6.90;42.65
20015;BME280;61787;42.022;23.078;2024-03-22T04:31:07;96931.84;;;6.87;42.40
20015;BME280;61787;42.022;23.078;2024-03-22T04:32:09;96936.09;;;6.88;42.51
20015;BME280;61787;42.022;23.078;2024-03-22T04:33:09;96931.44;;;6.89;42.41
20015;BME280;61787;42.022;23.078;2024-03-22T04:34:10;96938.75;;;6.85;42.45
20015;BME280;61787;42.022;23.078;2024-03-22T04:35:11;96937.25;;;6.87;42.28
20015;BME280;61787;42.022;23.078;2024-03-22T04:36:11;96941.50;;;6.88;42.43
20015;BME280;61787;42.022;23.078;2024-03-22T04:37:12;96943.03;;;6.86;42.49
20015;BME280;61787;42.022;23.078;2024-03-22T04:38:13;96947.25;;;6.83;42.77
20015;BME280;61787;42.022;23.078;2024-03-22T04:39:13;96945.38;;;6.87;42.80
20015;BME280;61787;42.022;23.078;2024-03-22T04:40:14;96945.75;;;6.86;42.83
20015;BME280;61787;42.022;23.078;2024-03-22T04:41:15;96952.69;;;6.83;42.87
20015;BME280;61787;42.022;23.078;2024-03-22T04:42:15;96953.47;;;6.84;42.80
20015;BME280;61787;42.022;23.078;2024-03-22T04:43:16;96953.50;;;6.87;42.75
20015;BME280;61787;42.022;23.078;2024-03-22T04:44:17;96948.84;;;6.88;42.62
20015;BME280;61787;42.022;23.078;2024-03-22T04:45:18;96944.19;;;6.85;42.84
20015;BME280;61787;42.022;23.078;2024-03-22T04:46:18;96955.06;;;6.88;42.74
20015;BME280;61787;42.022;23.078;2024-03-22T04:47:20;96953.09;;;6.89;42.99
20015;BME280;61787;42.022;23.078;2024-03-22T04:48:22;96955.06;;;6.92;43.10
20015;BME280;61787;42.022;23.078;2024-03-22T04:49:23;96949.31;;;6.97;42.84
20015;BME280;61787;42.022;23.078;2024-03-22T04:50:23;96956.31;;;6.98;43.02
20015;BME280;61787;42.022;23.078;2024-03-22T04:51:24;96957.41;;;6.94;42.70
20015;BME280;61787;42.022;23.078;2024-03-22T04:52:25;96958.97;;;6.91;42.79
20015;BME280;61787;42.022;23.078;2024-03-22T04:53:25;96955.44;;;6.91;42.86
20015;BME280;61787;42.022;23.078;2024-03-22T04:54:26;96962.06;;;6.93;42.76
20015;BME280;61787;42.022;23.078;2024-03-22T04:55:27;96953.56;;;6.95;42.92
20015;BME280;61787;42.022;23.078;2024-03-22T04:56:27;96960.13;;;6.94;42.99
20015;BME280;61787;42.022;23.078;2024-03-22T04:57:28;96963.97;;;6.93;43.09
20015;BME280;61787;42.022;23.078;2024-03-22T04:58:28;96977.19;;;6.98;42.92
20015;BME280;61787;42.022;23.078;2024-03-22T04:59:29;96960.94;;;7.01;43.15
20015;BME280;61787;42.022;23.078;2024-03-22T05:00:30;96966.03;;;7.06;42.89
20015;BME280;61787;42.022;23.078;2024-03-22T05:01:31;96968.03;;;7.13;42.77
20015;BME280;61787;42.022;23.078;2024-03-22T05:02:31;96967.25;;;7.13;42.75
20015;BME280;61787;42.022;23.078;2024-03-22T05:03:32;96973.09;;;7.18;42.75
20015;BME280;61787;42.022;23.078;2024-03-22T05:04:33;96970.81;;;7.24;42.65
20015;BME280;61787;42.022;23.078;2024-03-22T05:05:34;96968.13;;;7.28;42.59
20015;BME280;61787;42.022;23.078;2024-03-22T05:06:35;96967.00;;;7.32;42.76
20015;BME280;61787;42.022;23.078;2024-03-22T05:07:35;96975.16;;;7.32;42.37
20015;BME280;61787;42.022;23.078;2024-03-22T05:08:36;96969.72;;;7.32;42.49
20015;BME280;61787;42.022;23.078;2024-03-22T05:09:37;96975.53;;;7.34;42.16
20015;BME280;61787;42.022;23.078;2024-03-22T05:10:38;96971.66;;;7.35;42.17
20015;BME280;61787;42.022;23.078;2024-03-22T05:11:38;96972.47;;;7.39;43.02
20015;BME280;61787;42.022;23.078;2024-03-22T05:12:39;96978.31;;;7.41;42.76
20015;BME280;61787;42.022;23.078;2024-03-22T05:13:40;96977.94;;;7.43;42.56
20015;BME280;61787;42.022;23.078;2024-03-22T05:14:41;96982.56;;;7.42;42.62
20015;BME280;61787;42.022;23.078;2024-03-22T05:15:41;96979.84;;;7.42;42.24
20015;BME280;61787;42.022;23.078;2024-03-22T05:16:42;96971.34;;;7.44;42.25
20015;BME280;61787;42.022;23.078;2024-03-22T05:17:42;96976.34;;;7.42;42.26
20015;BME280;61787;42.022;23.078;2024-03-22T05:18:43;96979.47;;;7.44;42.29
20015;BME280;61787;42.022;23.078;2024-03-22T05:19:44;96988.38;;;7.44;42.43
20015;BME280;61787;42.022;23.078;2024-03-22T05:20:44;96984.91;;;7.48;42.34
20015;BME280;61787;42.022;23.078;2024-03-22T05:21:45;96981.84;;;7.53;42.10